Time;durP1;ratioP1;P1;durP2;ratioP2;P2;SDS_P1;SDS_P2;PMS_P1;PMS_P2;Temp;Humidity;BMP_temperature;BMP_pressure;BME280_temperature;BME280_humidity;BME280_pressure;Samples;Min_cycle;Max_cycle;Signal;HPM_P1;HPM_P2
2021/10/08 00:01:43;;;;;;;17.17;7.47;;;9.20;99.90;;;;;;5036486;28;20057;-68
2021/10/08 00:04:10;;;;;;;15.48;7.20;;;9.10;99.90;;;;;;5036827;28;20119;-70
2021/10/08 00:06:37;;;;;;;18.27;7.95;;;9.00;99.90;;;;;;5036094;28;20044;-69
2021/10/08 00:09:04;;;;;;;13.13;7.20;;;8.90;99.90;;;;;;5035985;28;20107;-70
2021/10/08 00:11:32;;;;;;;15.07;6.65;;;8.80;99.90;;;;;;5035607;28;20512;-69
2021/10/08 00:13:59;;;;;;;15.07;6.53;;;8.90;99.90;;;;;;5036212;28;20126;-72
2021/10/08 00:16:27;;;;;;;12.50;6.53;;;8.90;99.90;;;;;;5034880;28;20048;-70
2021/10/08 00:18:54;;;;;;;12.85;6.38;;;9.00;99.90;;;;;;5036719;28;20053;-72
2021/10/08 00:21:22;;;;;;;10.50;5.88;;;9.10;99.90;;;;;;5033553;28;20084;-72
2021/10/08 00:23:50;;;;;;;13.93;6.57;;;9.10;99.90;;;;;;5032214;28;20068;-70
2021/10/08 00:26:17;;;;;;;13.85;6.93;;;9.10;99.90;;;;;;5031816;28;20053;-69
2021/10/08 00:28:44;;;;;;;12.55;6.43;;;9.00;99.90;;;;;;5032646;28;20053;-70
2021/10/08 00:31:11;;;;;;;10.90;6.03;;;9.10;99.90;;;;;;5031967;28;20452;-70
2021/10/08 00:33:40;;;;;;;12.52;5.90;;;9.10;99.90;;;;;;5031974;28;20061;-72
2021/10/08 00:36:07;;;;;;;10.75;5.45;;;9.00;99.90;;;;;;5031890;28;20107;-72
2021/10/08 00:38:34;;;;;;;10.63;6.00;;;9.00;99.90;;;;;;5031900;28;20091;-70
2021/10/08 00:41:01;;;;;;;10.95;6.32;;;9.10;99.90;;;;;;5032488;28;20048;-70
2021/10/08 00:43:28;;;;;;;11.85;6.07;;;9.00;99.90;;;;;;5031693;28;20468;-69
2021/10/08 00:45:55;;;;;;;10.20;5.32;;;9.00;99.90;;;;;;5032018;28;20138;-71
2021/10/08 00:48:22;;;;;;;9.70;5.75;;;9.00;99.90;;;;;;5033239;28;20052;-69
2021/10/08 00:50:52;;;;;;;10.25;6.10;;;9.00;99.90;;;;;;5033031;28;20327;-69
2021/10/08 00:53:20;;;;;;;13.80;6.65;;;8.90;99.90;;;;;;5032082;28;20402;-69
2021/10/08 00:55:48;;;;;;;13.07;5.97;;;8.80;99.90;;;;;;5032028;28;20045;-69
2021/10/08 00:58:16;;;;;;;11.23;6.15;;;8.80;99.90;;;;;;5033099;28;20559;-68
2021/10/08 01:00:45;;;;;;;10.63;6.15;;;8.80;99.90;;;;;;5032343;28;20099;-69
2021/10/08 01:03:13;;;;;;;12.57;6.63;;;8.80;99.90;;;;;;5031090;28;20084;-70
2021/10/08 01:05:41;;;;;;;17.95;6.40;;;8.70;99.90;;;;;;5030963;28;20045;-71
2021/10/08 01:08:10;;;;;;;14.60;6.70;;;8.70;99.90;;;;;;5032143;28;20110;-72
2021/10/08 01:10:40;;;;;;;12.63;6.85;;;8.70;99.90;;;;;;5031978;28;20072;-69
2021/10/08 01:13:08;;;;;;;10.30;6.53;;;8.70;99.90;;;;;;5031849;28;20049;-69
2021/10/08 01:15:36;;;;;;;12.10;6.13;;;8.60;99.90;;;;;;5030962;28;20053;-69
2021/10/08 01:18:04;;;;;;;13.40;6.75;;;8.60;99.90;;;;;;5031609;28;20045;-73
2021/10/08 01:20:33;;;;;;;12.40;6.57;;;8.60;99.90;;;;;;5032138;28;20509;-70
2021/10/08 01:23:00;;;;;;;14.82;6.93;;;8.60;99.90;;;;;;5031890;28;20123;-70
2021/10/08 01:25:28;;;;;;;20.63;6.88;;;8.60;99.90;;;;;;5030780;28;20051;-69
2021/10/08 01:27:56;;;;;;;13.18;6.60;;;8.60;99.90;;;;;;5031320;28;20489;-69
2021/10/08 01:30:24;;;;;;;11.93;6.35;;;8.60;99.90;;;;;;5031964;28;20520;-69
2021/10/08 01:32:51;;;;;;;11.48;6.20;;;8.70;99.90;;;;;;5032553;28;20102;-69
2021/10/08 01:35:19;;;;;;;12.95;6.55;;;8.80;99.90;;;;;;5034769;28;20552;-72
2021/10/08 01:37:47;;;;;;;12.80;6.38;;;8.70;99.90;;;;;;5035522;28;20539;-70
2021/10/08 01:40:15;;;;;;;14.82;6.70;;;8.70;99.90;;;;;;5034973;28;20049;-72
2021/10/08 01:42:42;;;;;;;14.43;6.63;;;8.70;99.90;;;;;;5036129;28;20095;-70
2021/10/08 01:45:11;;;;;;;9.60;5.80;;;8.70;99.90;;;;;;5034632;28;20582;-69
2021/10/08 01:47:38;;;;;;;11.48;6.10;;;8.70;99.90;;;;;;5035872;28;20505;-70
2021/10/08 01:50:06;;;;;;;12.48;6.18;;;8.70;99.90;;;;;;5035678;28;20102;-72
2021/10/08 01:52:34;;;;;;;12.65;5.88;;;8.70;99.90;;;;;;5035463;28;20088;-71
2021/10/08 01:55:02;;;;;;;12.68;6.15;;;8.70;99.90;;;;;;5035333;28;20049;-70
2021/10/08 01:57:29;;;;;;;10.45;6.15;;;8.60;99.90;;;;;;5035282;28;20134;-70
2021/10/08 01:59:56;;;;;;;12.43;6.25;;;8.60;99.90;;;;;;5035691;28;20137;-72
2021/10/08 02:02:23;;;;;;;11.18;6.35;;;8.60;99.90;;;;;;5034473;28;20127;-70
2021/10/08 02:04:50;;;;;;;12.95;6.70;;;8.50;99.90;;;;;;5035527;28;20052;-71
2021/10/08 02:07:17;;;;;;;11.25;6.45;;;8.50;99.90;;;;;;5034974;28;20102;-74
2021/10/08 02:09:44;;;;;;;13.43;6.43;;;8.60;99.90;;;;;;5035853;28;20445;-70
2021/10/08 02:12:13;;;;;;;19.40;6.80;;;8.50;99.90;;;;;;5035776;28;20122;-72
2021/10/08 02:14:40;;;;;;;11.68;6.30;;;8.40;99.90;;;;;;5035366;28;20461;-70
2021/10/08 02:17:07;;;;;;;12.68;5.88;;;8.50;99.90;;;;;;5034006;28;20049;-69
2021/10/08 02:19:34;;;;;;;11.80;6.82;;;8.60;99.90;;;;;;5034076;28;20083;-70
2021/10/08 02:22:02;;;;;;;12.35;6.60;;;8.50;99.90;;;;;;5035127;28;20049;-70
2021/10/08 02:24:29;;;;;;;12.05;5.65;;;8.40;99.90;;;;;;5034574;28;20061;-70
2021/10/08 02:26:57;;;;;;;13.15;6.40;;;8.40;99.90;;;;;;5033749;28;20052;-71
2021/10/08 02:29:25;;;;;;;10.95;6.68;;;8.40;99.90;;;;;;5035394;28;20410;-72
2021/10/08 02:31:52;;;;;;;10.80;6.28;;;8.50;99.90;;;;;;5034348;28;20045;-72
2021/10/08 02:34:20;;;;;;;10.95;6.43;;;8.30;99.90;;;;;;5034465;28;20040;-70
2021/10/08 02:36:47;;;;;;;13.40;6.55;;;8.40;99.90;;;;;;5033951;28;20084;-73
2021/10/08 02:39:14;;;;;;;12.07;6.82;;;8.40;99.90;;;;;;5034906;28;20096;-72
2021/10/08 02:41:41;;;;;;;15.20;7.45;;;8.40;99.90;;;;;;5034825;28;20505;-72
2021/10/08 02:44:08;;;;;;;10.55;6.13;;;8.30;99.90;;;;;;5033617;28;20501;-70
2021/10/08 02:46:37;;;;;;;12.57;6.85;;;8.30;99.90;;;;;;5033978;28;20076;-71
2021/10/08 02:49:04;;;;;;;12.70;7.03;;;8.40;99.90;;;;;;5034814;28;20093;-71
2021/10/08 02:51:33;;;;;;;11.40;6.13;;;8.40;99.90;;;;;;5033879;28;20091;-70
2021/10/08 02:54:01;;;;;;;17.80;7.40;;;8.30;99.90;;;;;;5034186;28;20056;-70
2021/10/08 02:56:28;;;;;;;16.67;6.57;;;8.20;99.90;;;;;;5033549;28;20406;-71
2021/10/08 02:58:56;;;;;;;13.43;6.82;;;8.30;99.90;;;;;;5034498;28;20049;-70
2021/10/08 03:01:23;;;;;;;15.18;6.60;;;8.30;99.90;;;;;;5034585;28;20060;-70
2021/10/08 03:03:51;;;;;;;13.48;6.57;;;8.30;99.90;;;;;;5033541;28;20173;-70
2021/10/08 03:06:21;;;;;;;11.18;6.72;;;8.30;99.90;;;;;;5033810;28;20575;-72
2021/10/08 03:08:49;;;;;;;13.40;6.38;;;8.20;99.90;;;;;;5033890;28;20130;-69
2021/10/08 03:11:16;;;;;;;17.85;6.85;;;8.20;99.90;;;;;;5034893;28;20055;-70
2021/10/08 03:13:43;;;;;;;11.88;7.05;;;8.30;99.90;;;;;;5033785;28;20049;-72
2021/10/08 03:16:10;;;;;;;10.98;6.93;;;8.30;99.90;;;;;;5032390;28;20107;-72
2021/10/08 03:18:37;;;;;;;12.35;6.72;;;8.30;99.90;;;;;;5034364;28;20608;-70
2021/10/08 03:21:05;;;;;;;12.80;7.15;;;8.10;99.90;;;;;;5033406;28;20456;-70
2021/10/08 03:23:32;;;;;;;12.48;6.85;;;8.10;99.90;;;;;;5033533;28;20110;-70
2021/10/08 03:26:00;;;;;;;15.10;7.82;;;8.00;99.90;;;;;;5033419;28;20052;-71
2021/10/08 03:28:27;;;;;;;11.65;7.07;;;8.10;99.90;;;;;;5033725;28;20053;-70
2021/10/08 03:30:54;;;;;;;13.95;7.45;;;8.20;99.90;;;;;;5034110;28;20087;-70
2021/10/08 03:33:21;;;;;;;12.80;6.38;;;8.10;99.90;;;;;;5032718;28;20498;-70
2021/10/08 03:35:48;;;;;;;15.05;7.47;;;8.20;99.90;;;;;;5032886;28;20832;-70
2021/10/08 03:38:17;;;;;;;11.65;7.22;;;8.30;99.90;;;;;;5033451;28;20055;-72
2021/10/08 03:40:50;;;;;;;14.30;7.80;;;8.40;99.90;;;;;;5034022;28;20474;-70
2021/10/08 03:43:17;;;;;;;11.80;7.80;;;8.50;99.90;;;;;;5033616;28;20052;-70
2021/10/08 03:45:49;;;;;;;11.68;6.95;;;8.60;99.90;;;;;;5032670;28;20055;-70
2021/10/08 03:48:48;;;;;;;16.48;7.15;;;8.60;99.90;;;;;;5033150;28;20060;-71
2021/10/08 03:51:15;;;;;;;14.73;7.13;;;8.70;99.90;;;;;;5034151;28;20057;-70
2021/10/08 03:53:44;;;;;;;10.43;6.47;;;8.80;99.90;;;;;;5034033;28;20145;-70
2021/10/08 03:56:11;;;;;;;13.80;7.07;;;8.80;99.90;;;;;;5032564;28;20049;-71
2021/10/08 03:58:38;;;;;;;17.45;7.38;;;8.90;99.90;;;;;;5034135;28;20505;-70
2021/10/08 04:01:05;;;;;;;11.10;6.82;;;8.90;99.90;;;;;;5033593;28;20060;-70
2021/10/08 04:03:32;;;;;;;10.10;6.45;;;8.90;99.90;;;;;;5032751;28;20053;-73
2021/10/08 04:05:59;;;;;;;14.57;6.88;;;9.00;99.90;;;;;;5033504;28;20094;-72
2021/10/08 04:08:26;;;;;;;15.25;7.07;;;9.00;99.90;;;;;;5033276;28;20053;-70
2021/10/08 04:10:54;;;;;;;14.82;7.55;;;9.00;99.90;;;;;;5033537;28;20056;-70
2021/10/08 04:13:21;;;;;;;14.02;7.20;;;9.00;99.90;;;;;;5033598;28;20048;-72
2021/10/08 04:15:48;;;;;;;11.73;6.60;;;9.00;99.90;;;;;;5031820;28;20500;-70
2021/10/08 04:18:15;;;;;;;14.90;7.10;;;9.00;99.90;;;;;;5033567;28;20045;-70
2021/10/08 04:20:42;;;;;;;13.00;7.22;;;9.10;99.90;;;;;;5032372;28;20138;-70
2021/10/08 04:23:10;;;;;;;12.43;7.32;;;9.10;99.90;;;;;;5032659;28;20497;-70
2021/10/08 04:25:37;;;;;;;11.43;6.82;;;9.10;99.90;;;;;;5031210;28;20057;-72
2021/10/08 04:28:06;;;;;;;14.32;7.50;;;9.10;99.90;;;;;;5032976;28;20480;-70
2021/10/08 04:30:33;;;;;;;11.77;6.93;;;9.10;99.90;;;;;;5032555;28;20516;-70
2021/10/08 04:33:00;;;;;;;16.48;8.32;;;9.10;99.90;;;;;;5032500;28;20099;-70
2021/10/08 04:35:27;;;;;;;12.18;7.15;;;9.00;99.90;;;;;;5031484;28;20083;-71
2021/10/08 04:37:54;;;;;;;17.05;8.00;;;9.10;99.90;;;;;;5032747;28;20053;-73
2021/10/08 04:40:21;;;;;;;14.60;7.38;;;9.10;99.90;;;;;;5031744;28;20509;-71
2021/10/08 04:42:48;;;;;;;13.70;8.23;;;9.10;99.90;;;;;;5032229;28;20461;-70
2021/10/08 04:45:17;;;;;;;16.38;8.27;;;9.10;99.90;;;;;;5030286;28;20110;-72
2021/10/08 04:47:44;;;;;;;16.52;7.30;;;9.10;99.90;;;;;;5033008;28;20084;-69
2021/10/08 04:50:11;;;;;;;14.50;7.22;;;9.20;99.90;;;;;;5032168;28;20052;-70
2021/10/08 04:52:38;;;;;;;15.43;7.18;;;9.20;99.90;;;;;;5032186;28;20045;-71
2021/10/08 04:55:06;;;;;;;15.13;7.28;;;9.20;99.90;;;;;;5031711;28;20558;-70
2021/10/08 04:57:33;;;;;;;13.90;7.32;;;9.20;99.90;;;;;;5032447;28;20076;-71
2021/10/08 05:00:00;;;;;;;14.13;7.20;;;9.20;99.90;;;;;;5032257;28;20084;-69
2021/10/08 05:02:28;;;;;;;15.20;7.20;;;9.10;99.90;;;;;;5031427;28;20056;-72
2021/10/08 05:04:55;;;;;;;14.27;7.45;;;9.20;99.90;;;;;;5031666;28;20473;-70
2021/10/08 05:07:22;;;;;;;18.67;6.93;;;9.20;99.90;;;;;;5030452;28;20045;-70
2021/10/08 05:09:49;;;;;;;11.07;6.95;;;9.20;99.90;;;;;;5032171;28;20088;-71
2021/10/08 05:12:16;;;;;;;12.77;7.22;;;9.20;99.90;;;;;;5032601;28;20052;-70
2021/10/08 05:14:44;;;;;;;11.10;7.70;;;9.20;99.90;;;;;;5031341;28;20685;-71
2021/10/08 05:17:11;;;;;;;13.95;7.82;;;9.30;99.90;;;;;;5030840;28;20044;-72
2021/10/08 05:19:39;;;;;;;15.23;7.85;;;9.30;99.90;;;;;;5031718;28;20069;-70
2021/10/08 05:22:06;;;;;;;14.10;7.90;;;9.30;99.90;;;;;;5031668;28;20080;-72
2021/10/08 05:24:33;;;;;;;17.67;7.85;;;9.30;99.90;;;;;;5031711;28;20501;-70
2021/10/08 05:27:00;;;;;;;13.95;8.10;;;9.40;99.90;;;;;;5032065;28;20494;-71
2021/10/08 05:29:27;;;;;;;21.30;9.00;;;9.50;99.90;;;;;;5030626;28;20089;-71
2021/10/08 05:31:54;;;;;;;18.33;8.18;;;9.50;99.90;;;;;;5031157;28;20049;-71
2021/10/08 05:34:21;;;;;;;16.13;8.63;;;9.60;99.90;;;;;;5030600;28;20041;-71
2021/10/08 05:36:50;;;;;;;16.17;8.70;;;9.60;99.90;;;;;;5031008;28;20103;-69
2021/10/08 05:39:17;;;;;;;19.17;8.73;;;9.60;99.90;;;;;;5034252;28;20052;-70
2021/10/08 05:41:44;;;;;;;17.05;8.52;;;9.60;99.90;;;;;;5033965;28;20501;-71
2021/10/08 05:44:11;;;;;;;16.33;8.32;;;9.70;99.90;;;;;;5031880;28;20080;-71
2021/10/08 05:46:39;;;;;;;16.08;8.52;;;9.70;99.90;;;;;;5028787;28;20045;-71
2021/10/08 05:49:06;;;;;;;15.30;7.75;;;9.70;99.90;;;;;;5030977;28;20758;-69
2021/10/08 05:51:33;;;;;;;15.77;9.15;;;9.70;99.90;;;;;;5029213;28;20110;-69
2021/10/08 05:54:01;;;;;;;18.55;9.13;;;9.80;99.90;;;;;;5031848;28;20111;-69
2021/10/08 05:56:28;;;;;;;17.95;8.60;;;9.80;99.90;;;;;;5031867;28;20063;-72
2021/10/08 05:58:55;;;;;;;12.98;7.93;;;9.90;99.90;;;;;;5031348;28;20061;-70
2021/10/08 06:01:22;;;;;;;16.70;8.38;;;9.90;99.90;;;;;;5031568;28;21465;-72
2021/10/08 06:03:49;;;;;;;17.05;8.65;;;9.90;99.90;;;;;;5032358;28;20057;-69
2021/10/08 06:06:16;;;;;;;15.93;8.63;;;9.90;99.90;;;;;;5031851;28;20044;-69
2021/10/08 06:08:43;;;;;;;15.10;8.15;;;9.90;99.90;;;;;;5030332;28;20081;-71
2021/10/08 06:11:11;;;;;;;13.32;9.23;;;9.90;99.90;;;;;;5029345;28;20049;-69
2021/10/08 06:13:38;;;;;;;14.50;8.57;;;9.90;99.90;;;;;;5028033;28;20057;-70
2021/10/08 06:16:05;;;;;;;15.38;8.27;;;9.80;99.90;;;;;;5029263;28;20176;-69
2021/10/08 06:18:32;;;;;;;17.50;7.93;;;9.90;99.90;;;;;;5032536;28;20540;-70
2021/10/08 06:20:59;;;;;;;17.38;8.43;;;9.90;99.90;;;;;;5031817;28;20409;-72
2021/10/08 06:23:26;;;;;;;14.63;7.65;;;9.90;99.90;;;;;;5033329;28;20056;-71
2021/10/08 06:25:53;;;;;;;17.55;8.23;;;9.90;99.90;;;;;;5030950;28;20094;-69
2021/10/08 06:28:22;;;;;;;14.40;7.80;;;9.90;99.90;;;;;;5032234;28;20652;-70
2021/10/08 06:30:49;;;;;;;14.23;7.78;;;9.90;99.90;;;;;;5032030;28;20448;-71
2021/10/08 06:33:16;;;;;;;17.52;9.20;;;9.90;99.90;;;;;;5033171;28;20049;-70
2021/10/08 06:35:43;;;;;;;13.18;7.97;;;10.00;99.90;;;;;;5031511;28;20161;-70
2021/10/08 06:38:10;;;;;;;13.52;8.00;;;10.00;99.90;;;;;;5032895;28;20512;-70
2021/10/08 06:40:37;;;;;;;14.27;8.63;;;10.10;99.90;;;;;;5036677;28;20465;-72
2021/10/08 06:43:04;;;;;;;13.75;8.57;;;10.10;99.90;;;;;;5032905;28;20114;-72
2021/10/08 06:45:34;;;;;;;16.60;8.02;;;10.10;99.90;;;;;;5030555;28;20084;-71
2021/10/08 06:48:01;;;;;;;18.15;7.95;;;10.20;99.90;;;;;;5032472;28;20518;-70
2021/10/08 06:50:28;;;;;;;16.10;8.57;;;10.20;99.90;;;;;;5033063;28;20064;-70
2021/10/08 06:52:56;;;;;;;15.52;8.30;;;10.30;99.90;;;;;;5036083;28;20464;-70
2021/10/08 06:55:23;;;;;;;12.18;7.70;;;10.40;99.90;;;;;;5034102;28;20131;-70
2021/10/08 06:57:50;;;;;;;14.02;7.88;;;10.50;99.90;;;;;;5034412;28;20076;-68
2021/10/08 07:00:17;;;;;;;18.85;9.43;;;10.50;99.90;;;;;;5034831;28;20075;-69
2021/10/08 07:02:51;;;;;;;12.75;7.75;;;10.50;99.90;;;;;;5034813;28;20103;-69
2021/10/08 07:05:19;;;;;;;13.38;8.65;;;10.60;99.90;;;;;;5034561;28;20132;-70
2021/10/08 07:07:46;;;;;;;14.73;7.80;;;10.70;99.90;;;;;;5033283;28;20157;-71
2021/10/08 07:10:14;;;;;;;17.05;8.60;;;10.80;99.90;;;;;;5031992;28;20130;-71
2021/10/08 07:12:41;;;;;;;14.75;8.27;;;11.00;99.90;;;;;;5033537;28;20053;-71
2021/10/08 07:15:15;;;;;;;13.35;8.43;;;11.00;99.90;;;;;;5032498;28;20493;-69
2021/10/08 07:17:44;;;;;;;15.75;7.32;;;11.30;99.90;;;;;;5030944;28;20597;-70
2021/10/08 07:20:13;;;;;;;13.85;7.43;;;11.50;99.90;;;;;;5031573;28;20052;-70
2021/10/08 07:22:40;;;;;;;13.07;7.60;;;11.40;99.90;;;;;;5031190;28;20051;-71
2021/10/08 07:25:09;;;;;;;15.07;7.10;;;11.60;99.90;;;;;;5030787;28;20072;-70
2021/10/08 07:27:37;;;;;;;12.85;7.15;;;11.50;99.90;;;;;;5029991;28;20186;-70
2021/10/08 07:30:05;;;;;;;14.38;7.47;;;11.60;99.90;;;;;;5030091;28;20118;-70
2021/10/08 07:32:32;;;;;;;18.70;8.30;;;11.60;99.90;;;;;;5031364;28;20049;-69
2021/10/08 07:34:59;;;;;;;13.30;7.90;;;11.70;99.90;;;;;;5031366;28;21255;-70
2021/10/08 07:37:28;;;;;;;11.98;7.22;;;11.60;99.90;;;;;;5030161;28;20060;-70
2021/10/08 07:39:56;;;;;;;11.27;7.10;;;11.70;99.90;;;;;;5031244;28;20048;-69
2021/10/08 07:42:24;;;;;;;15.93;7.82;;;11.80;99.90;;;;;;5029477;28;20576;-70
2021/10/08 07:44:51;;;;;;;15.10;8.13;;;11.90;99.90;;;;;;5031279;28;20152;-68
2021/10/08 07:47:19;;;;;;;16.08;8.77;;;12.10;99.90;;;;;;5031338;28;20044;-69
2021/10/08 07:49:46;;;;;;;20.25;8.63;;;12.40;99.90;;;;;;5030388;28;20064;-71
2021/10/08 07:52:13;;;;;;;14.43;8.32;;;12.80;99.90;;;;;;5029618;28;20604;-69
2021/10/08 07:54:42;;;;;;;14.90;9.27;;;12.90;99.90;;;;;;5030309;28;20157;-71
2021/10/08 07:57:09;;;;;;;18.05;9.00;;;12.90;99.90;;;;;;5029427;28;20394;-71
2021/10/08 07:59:37;;;;;;;14.77;7.97;;;13.20;99.90;;;;;;5031372;28;20084;-69
2021/10/08 08:02:04;;;;;;;17.60;8.52;;;14.90;99.90;;;;;;5028825;28;20052;-69
2021/10/08 08:04:31;;;;;;;13.38;8.45;;;17.70;99.90;;;;;;5029094;28;20433;-70
2021/10/08 08:06:58;;;;;;;12.75;8.13;;;19.50;99.90;;;;;;5029573;28;20052;-72
2021/10/08 08:09:25;;;;;;;16.38;9.02;;;17.40;99.90;;;;;;5029192;28;20055;-70
2021/10/08 08:11:53;;;;;;;16.88;9.20;;;16.60;99.90;;;;;;5030239;28;20091;-69
2021/10/08 08:14:20;;;;;;;15.10;8.65;;;16.30;99.90;;;;;;5030329;28;20135;-69
2021/10/08 08:16:47;;;;;;;14.93;8.65;;;16.50;99.90;;;;;;5031851;28;20114;-70
2021/10/08 08:19:14;;;;;;;18.95;10.52;;;16.70;99.90;;;;;;5030127;28;20076;-70
2021/10/08 08:21:42;;;;;;;19.17;9.95;;;16.90;99.90;;;;;;5028813;28;20494;-69
2021/10/08 08:24:09;;;;;;;16.60;9.40;;;18.80;99.90;;;;;;5028705;28;20138;-71
2021/10/08 08:26:36;;;;;;;19.65;10.82;;;18.40;99.90;;;;;;5026762;28;20041;-71
2021/10/08 08:29:06;;;;;;;17.77;10.85;;;17.50;99.90;;;;;;5028853;28;20052;-70
2021/10/08 08:31:33;;;;;;;19.95;11.07;;;16.60;99.90;;;;;;5029421;28;20177;-72
2021/10/08 08:34:01;;;;;;;17.02;10.82;;;16.10;99.90;;;;;;5029778;28;20049;-70
2021/10/08 08:36:27;;;;;;;20.00;11.07;;;15.90;99.90;;;;;;5028161;28;20048;-73
2021/10/08 08:38:57;;;;;;;19.73;11.32;;;15.60;99.90;;;;;;5028818;28;20090;-70
2021/10/08 08:41:24;;;;;;;20.98;11.52;;;15.60;99.90;;;;;;5028884;28;20067;-70
2021/10/08 08:43:53;;;;;;;20.95;11.68;;;15.70;99.90;;;;;;5029884;28;20052;-72
2021/10/08 08:46:22;;;;;;;24.70;12.48;;;15.80;99.90;;;;;;5028658;28;20052;-71
2021/10/08 08:48:49;;;;;;;22.05;13.75;;;16.00;99.90;;;;;;5029267;28;20072;-70
2021/10/08 08:51:17;;;;;;;23.27;13.40;;;16.30;99.90;;;;;;5027734;28;20064;-70
2021/10/08 08:53:44;;;;;;;24.98;13.88;;;16.00;99.90;;;;;;5029085;28;20049;-70
2021/10/08 08:56:12;;;;;;;21.65;13.65;;;15.70;99.90;;;;;;5026389;28;20049;-70
2021/10/08 08:58:39;;;;;;;23.67;14.13;;;15.80;99.90;;;;;;5028622;28;20041;-72
2021/10/08 09:01:06;;;;;;;28.42;14.75;;;15.70;99.90;;;;;;5027847;28;20065;-69
2021/10/08 09:03:34;;;;;;;25.30;13.63;;;15.70;99.90;;;;;;5027573;28;20041;-71
2021/10/08 09:06:01;;;;;;;22.17;13.00;;;15.40;99.90;;;;;;5027489;28;20078;-69
2021/10/08 09:08:33;;;;;;;23.90;13.32;;;16.40;99.90;;;;;;5027649;28;20429;-69
2021/10/08 09:11:01;;;;;;;24.58;13.20;;;16.00;99.90;;;;;;5029580;28;20080;-71
2021/10/08 09:13:28;;;;;;;18.92;11.50;;;16.00;99.90;;;;;;5030790;28;20505;-70
2021/10/08 09:15:57;;;;;;;22.67;11.98;;;16.10;99.90;;;;;;5031580;28;20149;-69
2021/10/08 09:18:26;;;;;;;19.85;11.95;;;16.50;99.90;;;;;;5031016;28;20049;-70
2021/10/08 09:21:06;;;;;;;20.85;11.70;;;16.20;99.90;;;;;;5030166;28;20072;-72
2021/10/08 09:23:35;;;;;;;19.15;12.15;;;16.10;99.90;;;;;;5031256;28;20048;-70
2021/10/08 09:26:03;;;;;;;22.15;12.20;;;15.80;99.90;;;;;;5030164;28;20080;-70
2021/10/08 09:28:30;;;;;;;22.15;11.82;;;15.80;99.90;;;;;;5030763;28;20063;-70
2021/10/08 09:30:57;;;;;;;19.92;12.10;;;15.80;99.90;;;;;;5031362;28;20072;-71
2021/10/08 09:33:29;;;;;;;20.85;12.48;;;15.80;99.90;;;;;;5029051;28;20044;-70
2021/10/08 09:35:59;;;;;;;24.20;12.43;;;15.40;99.90;;;;;;5028325;28;20077;-70
2021/10/08 09:38:32;;;;;;;21.58;13.02;;;15.60;99.90;;;;;;5027074;28;20111;-68
2021/10/08 09:41:05;;;;;;;19.38;9.95;;;18.60;99.90;;;;;;5026692;28;20474;-70
2021/10/08 09:43:32;;;;;;;17.27;10.98;;;21.30;99.90;;;;;;5026401;28;20825;-71
2021/10/08 09:46:01;;;;;;;16.98;9.95;;;22.90;99.90;;;;;;5026432;28;20563;-71
2021/10/08 09:48:41;;;;;;;17.10;10.52;;;24.30;99.90;;;;;;5028853;28;20537;-71
2021/10/08 09:51:11;;;;;;;14.82;8.88;;;23.50;99.60;;;;;;5029818;28;20510;-70
2021/10/08 09:53:55;;;;;;;14.25;8.85;;;24.20;98.70;;;;;;5030125;28;20084;-69
2021/10/08 09:56:31;;;;;;;18.30;9.75;;;24.40;97.90;;;;;;5032872;28;20052;-69
2021/10/08 09:58:58;;;;;;;12.23;8.65;;;24.50;98.70;;;;;;5035956;28;20501;-69
2021/10/08 10:01:26;;;;;;;16.02;8.50;;;25.00;97.70;;;;;;5031723;28;20053;-70
2021/10/08 10:03:54;;;;;;;13.50;9.13;;;25.40;95.70;;;;;;5031923;28;20148;-72
2021/10/08 10:06:21;;;;;;;11.98;9.05;;;26.10;95.80;;;;;;5029892;28;20084;-70
2021/10/08 10:08:50;;;;;;;11.70;8.43;;;24.50;97.30;;;;;;5030067;28;20045;-71
2021/10/08 10:11:17;;;;;;;12.85;8.45;;;25.60;95.90;;;;;;5031251;28;20067;-72
2021/10/08 10:13:46;;;;;;;11.18;8.38;;;25.00;96.00;;;;;;5030509;28;20094;-71
2021/10/08 10:16:15;;;;;;;12.93;9.20;;;24.40;95.90;;;;;;5029379;28;20130;-71
2021/10/08 10:18:44;;;;;;;19.45;10.85;;;24.90;96.40;;;;;;5032538;28;20510;-72
2021/10/08 10:21:11;;;;;;;15.43;10.23;;;27.50;95.30;;;;;;5034673;28;20049;-71
2021/10/08 10:23:39;;;;;;;13.57;9.43;;;28.30;92.40;;;;;;5034844;28;20103;-71
2021/10/08 10:26:07;;;;;;;18.30;10.95;;;25.50;95.30;;;;;;5035318;28;20053;-71
2021/10/08 10:28:35;;;;;;;21.55;11.15;;;22.10;97.80;;;;;;5033798;28;20417;-71
2021/10/08 10:31:02;;;;;;;17.45;10.18;;;21.50;99.90;;;;;;5036805;28;20588;-69
2021/10/08 10:33:31;;;;;;;15.18;9.95;;;20.00;99.90;;;;;;5037455;28;20080;-71
2021/10/08 10:36:00;;;;;;;14.55;9.93;;;19.40;99.90;;;;;;5034977;28;20139;-71
2021/10/08 10:38:37;;;;;;;15.07;10.30;;;18.90;99.90;;;;;;5034907;28;20084;-69
2021/10/08 10:41:27;;;;;;;20.15;11.20;;;19.00;99.90;;;;;;5035754;28;20053;-69
2021/10/08 10:44:19;;;;;;;19.70;11.15;;;19.20;99.90;;;;;;5035390;28;20099;-69
2021/10/08 10:46:53;;;;;;;16.58;9.52;;;18.60;99.90;;;;;;5035045;28;20139;-69
2021/10/08 10:52:27;;;;;;;16.67;9.93;;;18.40;99.90;;;;;;5031168;28;20047;-70
2021/10/08 10:55:08;;;;;;;16.80;9.63;;;18.30;99.90;;;;;;5034552;28;20072;-69
2021/10/08 10:58:00;;;;;;;16.02;10.85;;;18.30;99.90;;;;;;5034984;28;20060;-71
2021/10/08 11:00:44;;;;;;;19.60;11.50;;;19.10;99.90;;;;;;5034731;28;20089;-71
2021/10/08 11:03:18;;;;;;;16.60;10.88;;;22.60;99.90;;;;;;5034314;28;20057;-71
2021/10/08 11:06:11;;;;;;;21.02;10.25;;;24.00;98.40;;;;;;5033494;28;20817;-71
2021/10/08 11:09:22;;;;;;;12.82;9.18;;;21.60;99.90;;;;;;5035159;28;20060;-69
2021/10/08 11:12:18;;;;;;;14.57;9.85;;;22.80;97.80;;;;;;5034637;28;20131;-71
2021/10/08 11:14:47;;;;;;;13.57;9.40;;;22.30;99.90;;;;;;5013598;28;20080;-69
2021/10/08 11:17:48;;;;;;;13.38;8.73;;;20.60;99.90;;;;;;5034381;28;20175;-69
2021/10/08 11:20:48;;;;;;;11.38;8.15;;;24.00;99.90;;;;;;4971823;28;20050;-71
2021/10/08 11:23:24;;;;;;;12.30;7.85;;;26.90;94.80;;;;;;4973935;28;20058;-69
2021/10/08 11:25:54;;;;;;;12.85;8.23;;;26.10;94.50;;;;;;5018838;28;20102;-70
2021/10/08 11:28:28;;;;;;;16.42;10.93;;;29.60;92.70;;;;;;5034517;28;20140;-70
2021/10/08 11:30:56;;;;;;;14.38;10.20;;;28.70;94.20;;;;;;5036700;28;20412;-71
2021/10/08 11:33:34;;;;;;;15.60;11.02;;;29.00;90.80;;;;;;5034862;28;20137;-70
2021/10/08 11:36:12;;;;;;;15.85;11.20;;;25.70;93.50;;;;;;5033977;28;20564;-70
2021/10/08 11:38:39;;;;;;;18.30;10.55;;;23.20;97.30;;;;;;5033332;28;20090;-70
2021/10/08 11:41:16;;;;;;;17.27;12.52;;;21.70;99.20;;;;;;5034866;28;20048;-71
2021/10/08 11:43:43;;;;;;;;;;;21.00;99.90;;;;;;5035281;28;20493;-71
2021/10/08 11:46:35;;;;;;;;;;;20.60;99.90;;;;;;5035114;28;19932;-69
2021/10/08 11:49:16;;;;;;;17.50;12.00;;;20.30;99.90;;;;;;5034917;28;20016;-69
2021/10/08 11:51:44;;;;;;;17.73;12.25;;;22.10;99.90;;;;;;5035554;28;20053;-70
2021/10/08 11:54:19;;;;;;;15.63;10.93;;;24.40;98.40;;;;;;5035654;28;20410;-70
2021/10/08 11:56:59;;;;;;;18.73;11.88;;;25.00;97.00;;;;;;5036087;28;20128;-70
2021/10/08 11:59:26;;;;;;;16.58;12.77;;;25.00;98.10;;;;;;5035713;28;20051;-70
2021/10/08 12:02:09;;;;;;;19.33;12.15;;;27.90;95.90;;;;;;5033920;28;20052;-71
2021/10/08 12:04:36;;;;;;;15.00;10.68;;;28.40;93.60;;;;;;5032417;28;20049;-70
2021/10/08 12:07:11;;;;;;;16.73;11.45;;;25.50;95.40;;;;;;5031065;28;20060;-68
2021/10/08 12:09:38;;;;;;;16.42;10.73;;;22.80;96.90;;;;;;5033597;28;20131;-71
2021/10/08 12:12:11;;;;;;;16.05;11.50;;;21.40;99.10;;;;;;5033922;28;20049;-69
2021/10/08 12:14:44;;;;;;;17.80;11.02;;;23.00;98.50;;;;;;5035086;28;20099;-70
2021/10/08 12:17:13;;;;;;;17.48;10.98;;;25.00;97.50;;;;;;5032941;28;20140;-70
2021/10/08 12:19:40;;;;;;;15.52;10.85;;;26.80;94.60;;;;;;5034807;28;20106;-70
2021/10/08 12:22:11;;;;;;;16.60;12.30;;;23.90;96.50;;;;;;5036250;28;20045;-72
2021/10/08 12:24:38;;;;;;;18.48;10.95;;;21.80;97.60;;;;;;5035521;28;20394;-70
2021/10/08 12:27:06;;;;;;;18.25;12.18;;;20.30;98.70;;;;;;5036148;28;20099;-71
2021/10/08 12:29:40;;;;;;;17.35;11.18;;;23.10;99.00;;;;;;5033650;28;20088;-70
2021/10/08 12:32:12;;;;;;;18.83;10.85;;;25.50;97.10;;;;;;5032799;28;20199;-70
2021/10/08 12:34:41;;;;;;;16.70;11.98;;;26.70;95.00;;;;;;5034737;28;20073;-71
2021/10/08 12:37:10;;;;;;;18.98;12.20;;;26.20;94.10;;;;;;5036456;28;20110;-70
2021/10/08 12:39:40;;;;;;;18.77;12.30;;;25.70;94.50;;;;;;5039695;28;20053;-70
2021/10/08 12:42:16;;;;;;;20.92;13.20;;;24.40;95.60;;;;;;5036465;28;20052;-71
2021/10/08 12:44:52;;;;;;;27.05;14.02;;;24.30;95.80;;;;;;5037558;28;20056;-72
2021/10/08 12:47:27;;;;;;;17.70;11.57;;;23.30;95.80;;;;;;5036434;28;20505;-70
2021/10/08 12:49:56;;;;;;;20.63;12.20;;;23.90;95.90;;;;;;5035165;28;20049;-71
2021/10/08 12:52:34;;;;;;;24.08;14.32;;;23.60;95.20;;;;;;5035930;28;20049;-69
2021/10/08 12:55:08;;;;;;;20.30;12.15;;;23.60;96.30;;;;;;5034779;28;20080;-68